Sedona, AZ

7:53 AM MST on October 30, 2014 (GMT -0700)
CoffeePot Cottages | Change Station
CLOSE
Current Station
Personal Weather Station
Location: Sedona, AZ
Elevation: 4536 ft
Nearby Weather Stations

Elev 4536 ft 34.88 °N, 111.79 °W | Updated 22 seconds ago

Clear
Clear
50.0 °F
Feels Like 50.0 °F
N
0.0
Wind Variable Wind from West
Gusts 0.0 mph

Today
High -- | Low -- °F
--% Chance of Precip.
Yesterday
High -- | Low -- °F
Precip. -- in
6:46 AM 5:34 PM
Waxing Crescent, 44% visible
Pressure 30.24 in
Visibility 10.0 miles
Clouds Clear
Dew Point 35 °F
Humidity 56%
Rainfall 0.00 in
Snow Depth Not available.
UV 0 out of 12
Pollen 3.60 out of 12
Air Quality Not available.
Flu Activity Not available.
METAR KSEZ 301435Z AUTO 06011G17KT 10SM CLR 16/M03 A3024 RMK AO2

More Conditions Fewer Conditions

Pressure 30.24 in
Visibility 10.0 miles
Clouds Clear
Dew Point 35 °F
Humidity 56%
Rainfall 0.00 in
Snow Depth Not available.
UV 0 out of 12
Pollen 3.60 out of 12
Air Quality Not available.
Flu Activity Not available.
METAR KSEZ 301435Z AUTO 06011G17KT 10SM CLR 16/M03 A3024 RMK AO2

More Conditions Fewer Conditions

10-Day Weather Forecast

Almanac

Astronomy

Oct. 30, 2014 Rise Set
Actual Time
Civil Twilight
Nautical Twilight
Astronomical Twilight
Moon
Length of Visible Light
Length of Day
Tomorrow will be .
, % of the Moon is Illuminated

Today's Extremes

State Highs State Lows

Community

WunderPhotos

Upload Photos

1,766,379 photos uploaded!

WunderBlogs® & News

Nearby

Air Quality

  Air Quality AQ Index Pollutant
Not available.

Snow Depth

Station Depth Elevation

Earthquake Activity

City Distance Mag. Time & Date
Minimum magnitude displayed is 2.5.

Coastal Water Temperatures

Place Temperature

Nearby Weather Stations